createdAt,value
2022-08-24T00:00:41.847Z,2.47
2022-08-24T00:03:12.045Z,2.38
2022-08-24T00:05:41.363Z,2.40
2022-08-24T00:08:10.074Z,2.05
2022-08-24T00:10:40.582Z,2.00
2022-08-24T00:13:09.185Z,2.15
2022-08-24T00:15:38.440Z,1.90
2022-08-24T00:18:07.141Z,1.83
2022-08-24T00:20:35.925Z,2.08
2022-08-24T00:23:04.830Z,2.25
2022-08-24T00:25:34.242Z,2.60
2022-08-24T00:28:05.072Z,2.20
2022-08-24T00:30:35.350Z,2.28
2022-08-24T00:33:05.033Z,2.22
2022-08-24T00:35:33.688Z,2.00
2022-08-24T00:38:02.389Z,2.38
2022-08-24T00:40:42.044Z,2.08
2022-08-24T00:43:12.346Z,2.22
2022-08-24T00:45:46.588Z,2.92
2022-08-24T00:48:19.078Z,2.33
2022-08-24T00:50:59.591Z,2.50
2022-08-24T00:53:33.349Z,2.40
2022-08-24T00:56:07.364Z,2.25
2022-08-24T00:58:41.509Z,2.58
2022-08-24T01:01:13.728Z,2.60
2022-08-24T01:03:46.227Z,2.40
2022-08-24T01:06:15.495Z,2.35
2022-08-24T01:08:45.667Z,2.25
2022-08-24T01:11:18.778Z,2.28
2022-08-24T01:13:52.206Z,2.35
2022-08-24T01:16:36.043Z,2.40
2022-08-24T01:19:08.084Z,2.30
2022-08-24T01:21:42.056Z,2.25
2022-08-24T01:24:14.884Z,2.55
2022-08-24T01:26:46.913Z,2.38
2022-08-24T01:29:19.545Z,2.75
2022-08-24T01:31:48.512Z,2.63
2022-08-24T01:34:17.050Z,2.28
2022-08-24T01:36:48.285Z,2.25
2022-08-24T01:39:23.275Z,2.13
2022-08-24T01:41:52.510Z,2.67
2022-08-24T01:44:22.736Z,2.58
2022-08-24T01:46:54.960Z,2.15
2022-08-24T01:49:25.954Z,3.00
2022-08-24T01:51:55.673Z,2.35
2022-08-24T01:54:26.431Z,2.67
2022-08-24T01:56:55.444Z,2.38
2022-08-24T01:59:25.360Z,2.70
2022-08-24T02:01:57.782Z,2.40
2022-08-24T02:04:26.457Z,2.38
2022-08-24T02:06:56.989Z,2.28
2022-08-24T02:09:30.430Z,2.53
2022-08-24T02:12:03.111Z,2.90
2022-08-24T02:14:36.797Z,2.47
2022-08-24T02:17:07.044Z,2.80
2022-08-24T02:19:36.551Z,1.98
2022-08-24T02:22:05.989Z,2.10
2022-08-24T02:24:40.317Z,2.75
2022-08-24T02:27:09.026Z,2.65
2022-08-24T02:29:38.039Z,2.53
2022-08-24T02:32:07.206Z,2.58
2022-08-24T02:34:36.428Z,2.50
2022-08-24T02:37:05.674Z,2.53
2022-08-24T02:39:34.822Z,2.30
2022-08-24T02:42:08.512Z,2.38
2022-08-24T02:44:37.151Z,2.67
2022-08-24T02:47:06.208Z,2.60
2022-08-24T02:49:36.905Z,2.70
2022-08-24T02:52:05.741Z,2.60
2022-08-24T02:54:37.139Z,2.85
2022-08-24T02:57:06.396Z,2.58
2022-08-24T02:59:36.872Z,2.25
2022-08-24T03:02:05.971Z,2.40
2022-08-24T03:04:34.896Z,2.40
2022-08-24T03:07:05.744Z,2.55
2022-08-24T03:09:34.317Z,2.42
2022-08-24T03:12:03.229Z,2.38
2022-08-24T03:14:32.090Z,3.17
2022-08-24T03:17:02.243Z,2.53
2022-08-24T03:19:31.053Z,2.70
2022-08-24T03:21:59.656Z,2.40
2022-08-24T03:24:28.376Z,2.67
2022-08-24T03:26:57.357Z,2.58
2022-08-24T03:29:28.399Z,2.30
2022-08-24T03:32:05.114Z,2.42
2022-08-24T03:34:34.213Z,2.50
2022-08-24T03:37:02.787Z,2.40
2022-08-24T03:39:31.872Z,2.47
2022-08-24T03:42:00.565Z,2.42
2022-08-24T03:44:29.163Z,2.33
2022-08-24T03:46:57.876Z,2.70
2022-08-24T03:49:29.841Z,2.95
2022-08-24T03:51:58.737Z,2.53
2022-08-24T03:54:27.416Z,2.35
2022-08-24T03:56:57.356Z,2.70
2022-08-24T03:59:27.122Z,2.35
2022-08-24T04:01:59.211Z,2.35
2022-08-24T04:04:30.414Z,2.70
2022-08-24T04:06:59.278Z,2.30
2022-08-24T04:09:29.442Z,2.83
2022-08-24T04:11:58.122Z,2.40
2022-08-24T04:14:28.105Z,2.55
2022-08-24T04:17:12.850Z,2.42
2022-08-24T04:19:57.695Z,2.53
2022-08-24T04:22:32.715Z,2.35
2022-08-24T04:25:01.720Z,2.65
2022-08-24T04:27:37.692Z,2.70
2022-08-24T04:30:07.885Z,2.58
2022-08-24T04:32:51.629Z,2.53
2022-08-24T04:35:22.447Z,2.60
2022-08-24T04:37:51.018Z,2.60
2022-08-24T04:40:19.906Z,2.83
2022-08-24T04:42:51.185Z,2.53
2022-08-24T04:45:19.844Z,2.53
2022-08-24T04:47:48.568Z,2.60
2022-08-24T04:50:17.318Z,2.97
2022-08-24T04:52:54.073Z,3.10
2022-08-24T04:55:22.943Z,2.72
2022-08-24T04:57:52.632Z,2.88
2022-08-24T05:00:22.432Z,3.22
2022-08-24T05:02:51.099Z,2.75
2022-08-24T05:05:20.058Z,2.58
2022-08-24T05:07:50.691Z,2.90
2022-08-24T05:10:23.309Z,3.00
2022-08-24T05:12:51.978Z,2.97
2022-08-24T05:15:21.377Z,2.85
2022-08-24T05:17:51.390Z,3.20
2022-08-24T05:20:21.379Z,2.85
2022-08-24T05:23:05.268Z,3.25
2022-08-24T05:25:39.906Z,3.10
2022-08-24T05:28:09.033Z,3.05
2022-08-24T05:30:41.961Z,2.90
2022-08-24T05:33:11.534Z,2.70
2022-08-24T05:35:43.728Z,3.15
2022-08-24T05:38:13.454Z,3.20
2022-08-24T05:40:43.419Z,2.90
2022-08-24T05:43:12.728Z,2.80
2022-08-24T05:45:44.238Z,2.90
2022-08-24T05:48:13.334Z,3.10
2022-08-24T05:51:08.636Z,3.03
2022-08-24T05:53:44.533Z,2.92
2022-08-24T05:56:18.122Z,3.00
2022-08-24T05:58:47.503Z,2.58
2022-08-24T06:01:19.016Z,3.17
2022-08-24T06:03:49.076Z,3.10
2022-08-24T06:06:19.407Z,3.13
2022-08-24T06:08:50.460Z,3.17
2022-08-24T06:11:30.355Z,2.90
2022-08-24T06:14:07.558Z,2.80
2022-08-24T06:16:40.759Z,2.92
2022-08-24T06:19:11.166Z,3.15
2022-08-24T06:21:40.246Z,3.50
2022-08-24T06:24:09.348Z,3.08
2022-08-24T06:27:05.449Z,3.13
2022-08-24T06:29:35.563Z,3.00
2022-08-24T06:32:24.650Z,3.28
2022-08-24T06:34:57.829Z,2.97
2022-08-24T06:37:29.333Z,2.95
2022-08-24T06:39:59.586Z,2.80
2022-08-24T06:42:31.547Z,3.42
2022-08-24T06:45:01.552Z,2.75
2022-08-24T06:47:30.334Z,3.05
2022-08-24T06:50:02.726Z,3.10
2022-08-24T06:52:31.298Z,2.83
2022-08-24T06:55:00.765Z,3.05
2022-08-24T06:57:31.667Z,2.70
2022-08-24T07:00:00.443Z,3.38
2022-08-24T07:02:29.301Z,3.20
2022-08-24T07:04:58.855Z,2.65
2022-08-24T07:08:00.263Z,2.60
2022-08-24T07:10:30.399Z,3.10
2022-08-24T07:13:01.333Z,3.40
2022-08-24T07:15:30.010Z,3.00
2022-08-24T07:18:10.223Z,3.08
2022-08-24T07:20:42.717Z,3.28
2022-08-24T07:23:20.929Z,3.28
2022-08-24T07:25:55.500Z,3.17
2022-08-24T07:28:31.683Z,2.83
2022-08-24T07:31:02.095Z,3.70
2022-08-24T07:33:34.770Z,3.58
2022-08-24T07:36:03.539Z,3.15
2022-08-24T07:38:33.992Z,3.03
2022-08-24T07:41:26.599Z,3.17
2022-08-24T07:43:53.032Z,3.92
2022-08-24T07:46:22.151Z,3.00
2022-08-24T07:49:00.096Z,3.08
2022-08-24T07:51:44.801Z,3.40
2022-08-24T07:54:16.259Z,3.38
2022-08-24T07:56:45.752Z,2.90
2022-08-24T07:59:16.061Z,2.83
2022-08-24T08:01:45.823Z,3.22
2022-08-24T08:04:16.271Z,3.10
2022-08-24T08:06:44.876Z,2.83
2022-08-24T08:09:13.525Z,2.90
2022-08-24T08:11:42.296Z,2.88
2022-08-24T08:14:11.487Z,3.00
2022-08-24T08:16:41.816Z,3.30
2022-08-24T08:19:11.175Z,3.10
2022-08-24T08:22:02.526Z,3.28
2022-08-24T08:24:33.755Z,3.00
2022-08-24T08:27:04.541Z,3.22
2022-08-24T08:29:40.634Z,2.90
2022-08-24T08:32:14.686Z,2.90
2022-08-24T08:34:43.775Z,3.10
2022-08-24T08:37:13.227Z,2.90
2022-08-24T08:39:42.293Z,2.95
2022-08-24T08:42:45.019Z,3.30
2022-08-24T08:45:26.344Z,3.08
2022-08-24T08:48:49.325Z,2.80
2022-08-24T08:51:57.142Z,3.35
2022-08-24T08:54:43.866Z,3.20
2022-08-24T08:57:51.079Z,2.85
2022-08-24T09:00:22.306Z,3.15
2022-08-24T09:03:27.611Z,3.10
2022-08-24T09:07:07.130Z,3.03
2022-08-24T09:10:09.128Z,3.05
2022-08-24T09:12:57.009Z,3.15
2022-08-24T09:15:37.265Z,3.60
2022-08-24T09:18:18.425Z,3.28
2022-08-24T09:21:04.160Z,2.80
2022-08-24T09:23:38.749Z,2.75
2022-08-24T09:26:19.083Z,2.80
2022-08-24T09:28:55.300Z,3.22
2022-08-24T09:31:46.467Z,3.35
2022-08-24T09:34:28.695Z,3.10
2022-08-24T09:37:05.694Z,3.38
2022-08-24T09:39:42.909Z,3.10
2022-08-24T09:42:52.209Z,3.80
2022-08-24T09:45:48.442Z,2.90
2022-08-24T09:48:54.700Z,3.58
2022-08-24T09:51:58.754Z,3.40
2022-08-24T09:54:57.357Z,3.53
2022-08-24T10:00:32.013Z,3.33
2022-08-24T10:03:07.889Z,3.35
2022-08-24T10:06:00.751Z,3.30
2022-08-24T10:08:41.025Z,3.08
2022-08-24T10:11:23.173Z,3.17
2022-08-24T10:13:59.978Z,3.50
2022-08-24T10:16:38.831Z,3.35
2022-08-24T10:19:31.535Z,3.10
2022-08-24T10:22:08.031Z,3.63
2022-08-24T10:24:50.457Z,3.20
2022-08-24T10:27:44.041Z,3.05
2022-08-24T10:30:33.848Z,3.10
2022-08-24T10:33:12.202Z,3.00
2022-08-24T10:36:08.501Z,3.08
2022-08-24T10:39:06.744Z,2.85
2022-08-24T10:42:06.909Z,3.50
2022-08-24T10:44:49.684Z,3.20
2022-08-24T10:47:23.478Z,2.83
2022-08-24T10:50:17.405Z,2.75
2022-08-24T10:53:15.728Z,2.88
2022-08-24T10:55:44.949Z,3.00
2022-08-24T10:58:48.930Z,3.08
2022-08-24T11:01:24.279Z,2.92
2022-08-24T11:03:57.054Z,2.70
2022-08-24T11:06:28.542Z,3.10
2022-08-24T11:09:01.082Z,3.00
2022-08-24T11:11:33.724Z,2.95
2022-08-24T11:14:08.492Z,2.90
2022-08-24T11:16:42.270Z,3.05
2022-08-24T11:19:14.174Z,2.88
2022-08-24T11:21:49.684Z,2.80
2022-08-24T11:24:43.586Z,2.75
2022-08-24T11:27:29.044Z,2.92
2022-08-24T11:30:13.947Z,2.70
2022-08-24T11:32:46.908Z,2.85
2022-08-24T11:35:25.544Z,2.70
2022-08-24T11:37:56.791Z,2.60
2022-08-24T11:40:30.189Z,2.42
2022-08-24T11:43:23.377Z,2.65
2022-08-24T11:46:04.630Z,2.38
2022-08-24T11:48:46.092Z,2.70
2022-08-24T11:51:28.542Z,2.60
2022-08-24T11:54:04.499Z,2.83
2022-08-24T11:56:39.689Z,2.50
2022-08-24T11:59:19.041Z,2.50
2022-08-24T12:01:54.651Z,2.70
2022-08-24T12:04:45.132Z,2.45
2022-08-24T12:07:27.718Z,2.30
2022-08-24T12:10:19.140Z,2.55
2022-08-24T12:12:53.258Z,2.53
2022-08-24T12:15:31.373Z,2.30
2022-08-24T12:18:05.266Z,2.40
2022-08-24T12:20:42.059Z,2.60
2022-08-24T12:23:17.994Z,3.15
2022-08-24T12:26:04.396Z,2.10
2022-08-24T12:28:39.248Z,2.40
2022-08-24T12:31:14.123Z,2.33
2022-08-24T12:33:49.606Z,2.20
2022-08-24T12:36:29.544Z,2.47
2022-08-24T12:39:08.802Z,2.67
2022-08-24T12:41:47.525Z,2.40
2022-08-24T12:44:17.937Z,2.83
2022-08-24T12:46:53.620Z,2.42
2022-08-24T12:49:29.021Z,2.30
2022-08-24T12:52:24.973Z,2.40
2022-08-24T12:55:19.048Z,2.15
2022-08-24T12:58:31.092Z,2.67
2022-08-24T13:00:58.568Z,2.40
2022-08-24T13:03:34.265Z,2.92
2022-08-24T13:06:08.381Z,2.22
2022-08-24T13:08:40.779Z,2.40
2022-08-24T13:11:15.039Z,2.33
2022-08-24T13:13:48.371Z,2.42
2022-08-24T13:16:50.217Z,2.50
2022-08-24T13:19:36.681Z,2.92
2022-08-24T13:22:47.088Z,2.67
2022-08-24T13:25:27.963Z,2.85
2022-08-24T13:28:08.386Z,2.80
2022-08-24T13:30:59.143Z,2.55
2022-08-24T13:33:32.884Z,2.80
2022-08-24T13:36:06.046Z,2.83
2022-08-24T13:39:09.837Z,2.70
2022-08-24T13:41:50.534Z,2.38
2022-08-24T13:44:28.909Z,2.15
2022-08-24T13:47:09.182Z,3.13
2022-08-24T13:50:03.217Z,3.17
2022-08-24T13:52:43.616Z,2.55
2022-08-24T13:55:29.915Z,2.63
2022-08-24T13:58:43.262Z,2.42
2022-08-24T14:01:31.097Z,2.63
2022-08-24T14:04:31.586Z,2.63
2022-08-24T14:07:04.917Z,2.85
2022-08-24T14:09:41.586Z,2.63
2022-08-24T14:12:20.160Z,2.35
2022-08-24T14:15:01.404Z,2.40
2022-08-24T14:17:53.901Z,2.40
2022-08-24T14:21:01.947Z,2.17
2022-08-24T14:23:52.271Z,2.55
2022-08-24T14:27:06.072Z,2.50
2022-08-24T14:29:53.886Z,2.70
2022-08-24T14:32:38.580Z,2.58
2022-08-24T14:35:37.282Z,2.42
2022-08-24T14:38:31.358Z,2.50
2022-08-24T14:41:20.633Z,2.63
2022-08-24T14:44:11.417Z,2.10
2022-08-24T14:46:51.550Z,2.70
2022-08-24T14:49:29.930Z,2.47
2022-08-24T14:52:10.918Z,2.55
2022-08-24T14:54:54.821Z,2.72
2022-08-24T14:57:48.330Z,2.72
2022-08-24T15:00:20.731Z,2.55
2022-08-24T15:03:27.097Z,2.13
2022-08-24T15:06:26.430Z,2.40
2022-08-24T15:09:08.117Z,2.50
2022-08-24T15:11:39.787Z,2.25
2022-08-24T15:14:19.773Z,2.75
2022-08-24T15:16:55.471Z,2.40
2022-08-24T15:19:31.603Z,2.38
2022-08-24T15:22:05.397Z,2.50
2022-08-24T15:24:41.625Z,2.67
2022-08-24T15:27:19.716Z,2.58
2022-08-24T15:29:52.925Z,2.35
2022-08-24T15:32:22.865Z,2.47
2022-08-24T15:34:59.119Z,2.38
2022-08-24T15:37:31.739Z,2.72
2022-08-24T15:40:02.082Z,2.40
2022-08-24T15:42:35.037Z,3.33
2022-08-24T15:45:05.293Z,2.38
2022-08-24T15:47:36.970Z,2.72
2022-08-24T15:50:09.566Z,2.60
2022-08-24T15:52:51.157Z,2.35
2022-08-24T15:55:35.988Z,2.40
2022-08-24T15:58:27.958Z,2.67
2022-08-24T16:01:20.098Z,2.40
2022-08-24T16:03:52.118Z,2.28
2022-08-24T16:06:26.155Z,2.47
2022-08-24T16:09:00.689Z,2.75
2022-08-24T16:11:33.713Z,2.85
2022-08-24T16:14:03.324Z,2.80
2022-08-24T16:16:38.472Z,2.40
2022-08-24T16:19:18.746Z,2.50
2022-08-24T16:21:54.850Z,2.50
2022-08-24T16:24:32.184Z,2.40
2022-08-24T16:27:04.905Z,2.85
2022-08-24T16:29:55.773Z,2.08
2022-08-24T16:32:32.359Z,2.30
2022-08-24T16:35:19.365Z,2.88
2022-08-24T16:37:48.002Z,2.40
2022-08-24T16:40:19.581Z,2.78
2022-08-24T16:42:48.533Z,2.45
2022-08-24T16:45:21.011Z,2.63
2022-08-24T16:47:50.005Z,2.40
2022-08-24T16:50:20.883Z,2.63
2022-08-24T16:52:50.605Z,2.55
2022-08-24T16:55:20.793Z,2.65
2022-08-24T16:57:50.478Z,2.03
2022-08-24T17:00:22.061Z,2.20
2022-08-24T17:02:50.804Z,1.95
2022-08-24T17:05:19.788Z,2.40
2022-08-24T17:07:50.125Z,2.10
2022-08-24T17:10:23.136Z,2.10
2022-08-24T17:12:51.890Z,2.22
2022-08-24T17:15:21.205Z,2.22
2022-08-24T17:18:08.730Z,2.05
2022-08-24T17:20:37.647Z,2.17
2022-08-24T17:23:08.423Z,2.20
2022-08-24T17:25:41.857Z,2.10
2022-08-24T17:28:13.332Z,2.72
2022-08-24T17:30:42.342Z,2.55
2022-08-24T17:33:11.093Z,2.38
2022-08-24T17:35:40.485Z,2.25
2022-08-24T17:38:09.175Z,2.15
2022-08-24T17:40:39.182Z,2.25
2022-08-24T17:43:08.065Z,2.20
2022-08-24T17:45:36.838Z,2.50
2022-08-24T17:48:06.358Z,2.22
2022-08-24T17:50:35.808Z,2.33
2022-08-24T17:53:05.325Z,2.63
2022-08-24T17:55:33.910Z,3.25
2022-08-24T17:58:03.973Z,4.25
2022-08-24T18:00:32.608Z,3.22
2022-08-24T18:03:01.221Z,3.30
2022-08-24T18:05:31.663Z,2.65
2022-08-24T18:08:01.785Z,2.53
2022-08-24T18:10:32.937Z,2.70
2022-08-24T18:13:04.821Z,2.42
2022-08-24T18:15:36.441Z,2.40
2022-08-24T18:18:08.627Z,2.50
2022-08-24T18:20:40.096Z,2.70
2022-08-24T18:23:11.216Z,2.30
2022-08-24T18:25:47.121Z,2.25
2022-08-24T18:28:18.698Z,2.38
2022-08-24T18:30:47.379Z,2.38
2022-08-24T18:33:17.001Z,2.75
2022-08-24T18:35:47.547Z,2.17
2022-08-24T18:38:16.106Z,2.38
2022-08-24T18:40:52.248Z,2.42
2022-08-24T18:43:24.777Z,2.13
2022-08-24T18:45:53.884Z,2.38
2022-08-24T18:48:22.670Z,2.67
2022-08-24T18:50:52.080Z,2.63
2022-08-24T18:53:21.378Z,2.58
2022-08-24T18:55:49.952Z,2.35
2022-08-24T18:58:18.570Z,2.58
2022-08-24T19:00:49.315Z,2.47
2022-08-24T19:03:23.281Z,2.90
2022-08-24T19:05:51.917Z,2.80
2022-08-24T19:08:20.659Z,2.83
2022-08-24T19:10:49.344Z,2.80
2022-08-24T19:13:18.924Z,2.70
2022-08-24T19:15:49.839Z,2.97
2022-08-24T19:18:20.478Z,3.13
2022-08-24T19:20:52.166Z,3.20
2022-08-24T19:23:24.534Z,3.03
2022-08-24T19:25:53.981Z,3.20
2022-08-24T19:28:23.268Z,3.40
2022-08-24T19:30:58.002Z,3.30
2022-08-24T19:33:46.765Z,3.55
2022-08-24T19:36:19.298Z,3.47
2022-08-24T19:38:47.895Z,3.45
2022-08-24T19:41:18.825Z,3.50
2022-08-24T19:44:10.254Z,3.60
2022-08-24T19:46:40.224Z,3.03
2022-08-24T19:49:09.533Z,2.80
2022-08-24T19:51:39.285Z,3.33
2022-08-24T19:54:08.747Z,2.90
2022-08-24T19:56:37.340Z,2.78
2022-08-24T19:59:09.696Z,2.90
2022-08-24T20:01:39.939Z,3.03
2022-08-24T20:04:08.539Z,3.28
2022-08-24T20:06:39.634Z,2.88
2022-08-24T20:09:09.251Z,3.03
2022-08-24T20:11:39.212Z,3.00
2022-08-24T20:14:07.846Z,3.13
2022-08-24T20:16:39.405Z,3.03
2022-08-24T20:19:11.399Z,2.92
2022-08-24T20:21:39.919Z,2.90
2022-08-24T20:24:08.754Z,3.20
2022-08-24T20:26:42.507Z,2.90
2022-08-24T20:29:12.560Z,2.90
2022-08-24T20:31:42.356Z,2.65
2022-08-24T20:34:12.360Z,2.70
2022-08-24T20:36:45.823Z,3.03
2022-08-24T20:39:17.984Z,2.67
2022-08-24T20:41:46.586Z,2.75
2022-08-24T20:44:15.181Z,3.05
2022-08-24T20:46:46.488Z,2.83
2022-08-24T20:49:17.656Z,3.08
2022-08-24T20:51:48.195Z,2.67
2022-08-24T20:54:16.733Z,3.15
2022-08-24T20:56:45.878Z,3.15
2022-08-24T20:59:16.708Z,2.83
2022-08-24T21:01:45.872Z,2.97
2022-08-24T21:04:16.692Z,3.25
2022-08-24T21:06:45.861Z,3.22
2022-08-24T21:09:16.285Z,3.00
2022-08-24T21:11:46.192Z,2.60
2022-08-24T21:14:14.794Z,3.38
2022-08-24T21:16:44.465Z,3.03
2022-08-24T21:19:17.733Z,2.78
2022-08-24T21:21:48.416Z,3.25
2022-08-24T21:24:17.287Z,2.83
2022-08-24T21:26:46.098Z,2.95
2022-08-24T21:29:14.757Z,2.92
2022-08-24T21:32:03.329Z,2.65
2022-08-24T21:34:42.984Z,2.85
2022-08-24T21:37:15.302Z,2.70
2022-08-24T21:39:44.506Z,2.72
2022-08-24T21:42:17.488Z,2.90
2022-08-24T21:44:49.455Z,2.83
2022-08-24T21:47:18.693Z,2.88
2022-08-24T21:49:47.368Z,3.30
2022-08-24T21:52:17.450Z,3.05
2022-08-24T21:54:46.036Z,3.03
2022-08-24T21:57:15.342Z,2.65
2022-08-24T21:59:44.243Z,2.70
2022-08-24T22:02:13.497Z,2.88
2022-08-24T22:04:45.477Z,3.15
2022-08-24T22:07:14.525Z,2.70
2022-08-24T22:09:45.199Z,2.50
2022-08-24T22:12:13.840Z,2.75
2022-08-24T22:14:42.392Z,2.50
2022-08-24T22:17:11.012Z,2.70
2022-08-24T22:19:39.925Z,2.40
2022-08-24T22:22:08.485Z,2.75
2022-08-24T22:24:37.494Z,2.33
2022-08-24T22:27:07.398Z,2.42
2022-08-24T22:29:35.960Z,2.40
2022-08-24T22:32:05.496Z,2.28
2022-08-24T22:34:36.436Z,2.38
2022-08-24T22:37:05.972Z,2.30
2022-08-24T22:39:34.648Z,2.28
2022-08-24T22:42:04.537Z,2.17
2022-08-24T22:44:35.637Z,2.40
2022-08-24T22:47:13.113Z,1.98
2022-08-24T22:49:44.320Z,2.30
2022-08-24T22:52:14.424Z,2.50
2022-08-24T22:54:43.087Z,2.42
2022-08-24T22:57:11.753Z,2.35
2022-08-24T22:59:44.033Z,2.17
2022-08-24T23:02:15.358Z,2.20
2022-08-24T23:04:46.303Z,2.40
2022-08-24T23:07:15.598Z,2.13
2022-08-24T23:09:45.518Z,2.08
2022-08-24T23:12:17.693Z,1.85
2022-08-24T23:14:50.235Z,1.92
2022-08-24T23:17:19.328Z,1.90
2022-08-24T23:20:05.653Z,2.00
2022-08-24T23:22:38.953Z,2.20
2022-08-24T23:25:09.879Z,2.20
2022-08-24T23:27:39.039Z,2.60
2022-08-24T23:30:12.724Z,2.13
2022-08-24T23:32:43.028Z,2.17
2022-08-24T23:35:11.642Z,1.83
2022-08-24T23:37:40.419Z,1.90
2022-08-24T23:40:10.031Z,1.90
2022-08-24T23:42:38.658Z,1.92
2022-08-24T23:45:11.847Z,2.10
2022-08-24T23:47:41.577Z,2.35
2022-08-24T23:50:11.476Z,2.47
2022-08-24T23:52:41.202Z,2.17
2022-08-24T23:55:21.673Z,2.28
2022-08-24T23:57:52.113Z,2.20
